createdAt,value
2018-03-02T00:01:27.977Z,68.72
2018-03-02T00:03:55.520Z,64.53
2018-03-02T00:06:23.141Z,73.07
2018-03-02T00:08:50.649Z,75.40
2018-03-02T00:11:18.198Z,70.20
2018-03-02T00:13:45.722Z,71.70
2018-03-02T00:16:13.308Z,66.75
2018-03-02T00:18:40.817Z,69.85
2018-03-02T00:21:09.092Z,71.65
2018-03-02T00:23:37.366Z,75.72
2018-03-02T00:26:04.893Z,70.65
2018-03-02T00:28:32.443Z,77.35
2018-03-02T00:30:59.954Z,70.20
2018-03-02T00:33:28.250Z,70.97
2018-03-02T00:35:55.922Z,70.87
2018-03-02T00:38:23.435Z,73.05
2018-03-02T00:40:51.830Z,80.10
2018-03-02T00:43:19.369Z,72.37
2018-03-02T00:45:46.865Z,71.75
2018-03-02T04:15:46.682Z,78.10
2018-03-02T04:18:14.208Z,81.03
2018-03-02T04:20:41.730Z,84.87
2018-03-02T04:23:09.271Z,80.72
2018-03-02T04:25:36.789Z,80.00
2018-03-02T04:28:04.288Z,77.97
2018-03-02T04:30:31.913Z,81.50
2018-03-02T04:32:59.438Z,77.22
2018-03-02T04:35:26.965Z,85.60
2018-03-02T04:37:54.446Z,81.78
2018-03-02T04:40:22.024Z,81.12
2018-03-02T04:42:50.466Z,80.35
2018-03-02T04:45:17.962Z,78.72
2018-03-02T04:47:45.617Z,84.28
2018-03-02T04:50:13.134Z,84.30
2018-03-02T04:52:40.669Z,84.95
2018-03-02T04:55:08.177Z,86.12
2018-03-02T04:57:36.490Z,79.43
2018-03-02T05:00:04.006Z,83.20
2018-03-02T05:02:31.720Z,88.97
2018-03-02T05:04:59.374Z,82.43
2018-03-02T05:07:26.886Z,81.63
2018-03-02T05:09:54.402Z,88.10
2018-03-02T05:12:21.919Z,80.78
2018-03-02T05:14:49.506Z,92.45
2018-03-02T05:17:17.024Z,85.07
2018-03-02T05:19:44.531Z,87.62
2018-03-02T05:22:12.172Z,75.57
2018-03-02T05:24:40.369Z,93.12
2018-03-02T05:27:07.891Z,82.07
2018-03-02T05:29:35.421Z,88.82
2018-03-02T05:32:03.030Z,79.78
2018-03-02T05:34:30.530Z,89.65
2018-03-02T05:36:58.362Z,88.35
2018-03-02T05:39:25.866Z,83.55
2018-03-02T05:41:53.559Z,90.68
2018-03-02T05:44:45.019Z,93.07
2018-03-02T05:58:44.500Z,83.90
2018-03-02T06:01:14.269Z,92.62
2018-03-02T06:03:41.792Z,95.50
2018-03-02T06:06:09.332Z,87.57
2018-03-02T06:08:36.870Z,89.80
2018-03-02T06:11:04.453Z,91.15
2018-03-02T06:13:31.959Z,86.60
2018-03-02T06:15:59.487Z,85.38
2018-03-02T06:18:27.260Z,88.18
2018-03-02T06:20:54.887Z,84.20
2018-03-02T06:23:22.410Z,96.57
2018-03-02T06:25:49.943Z,92.70
2018-03-02T06:28:17.521Z,89.15
2018-03-02T06:30:45.084Z,87.22
2018-03-02T06:33:12.882Z,87.68
2018-03-02T06:35:40.443Z,88.32
2018-03-02T06:38:07.980Z,86.82
2018-03-02T06:40:36.559Z,84.85
2018-03-02T06:43:05.464Z,88.47
2018-03-02T06:45:33.023Z,89.75
2018-03-02T06:48:01.081Z,88.65
2018-03-02T06:50:28.708Z,89.50
2018-03-02T06:52:56.243Z,89.45
2018-03-02T06:55:23.785Z,88.60
2018-03-02T06:57:51.385Z,82.47
2018-03-02T07:00:19.413Z,87.97
2018-03-02T07:02:46.967Z,88.82
2018-03-02T07:05:14.568Z,97.18
2018-03-02T07:07:42.878Z,96.10
2018-03-02T07:10:10.436Z,93.40
2018-03-02T07:12:37.995Z,92.22
2018-03-02T07:15:05.514Z,92.82
2018-03-02T07:17:33.851Z,90.97
2018-03-02T07:20:01.376Z,88.70
2018-03-02T07:22:29.674Z,91.72
2018-03-02T07:24:57.214Z,87.85
2018-03-02T07:27:24.738Z,81.43
2018-03-02T07:29:52.270Z,88.25
2018-03-02T07:32:19.779Z,96.18
2018-03-02T07:34:47.289Z,86.28
2018-03-02T07:37:14.834Z,88.78
2018-03-02T07:39:42.333Z,81.95
2018-03-02T07:42:09.863Z,94.03
2018-03-02T07:44:37.384Z,85.12
2018-03-02T07:47:04.912Z,87.18
2018-03-02T07:49:32.581Z,89.43
2018-03-02T07:52:00.081Z,83.43
2018-03-02T07:54:27.576Z,83.35
2018-03-02T07:56:55.126Z,80.90
2018-03-02T07:59:22.709Z,78.90
2018-03-02T08:01:50.424Z,84.72
2018-03-02T08:04:18.092Z,83.12
2018-03-02T08:06:45.669Z,77.25
2018-03-02T08:09:13.200Z,83.05
2018-03-02T08:11:41.681Z,84.37
2018-03-02T08:14:09.207Z,86.72
2018-03-02T08:16:36.848Z,73.40
2018-03-02T08:19:04.382Z,85.53
2018-03-02T08:21:31.898Z,82.72
2018-03-02T08:23:59.855Z,81.53
2018-03-02T08:26:27.402Z,88.53
2018-03-02T08:28:55.167Z,67.68
2018-03-02T08:31:23.503Z,78.85
2018-03-02T08:33:51.119Z,86.60
2018-03-02T08:36:18.752Z,85.35
2018-03-02T08:38:46.376Z,81.80
2018-03-02T08:41:13.920Z,77.72
2018-03-02T08:43:41.752Z,82.32
2018-03-02T08:46:10.065Z,73.05
2018-03-02T08:48:37.689Z,72.28
2018-03-02T08:51:05.390Z,74.85
2018-03-02T08:53:32.928Z,64.70
2018-03-02T08:56:00.597Z,73.22
2018-03-02T08:58:28.105Z,74.40
2018-03-02T09:00:55.743Z,75.50
2018-03-02T09:03:23.255Z,71.90
2018-03-02T09:05:50.790Z,78.10
2018-03-02T09:08:18.354Z,71.68
2018-03-02T09:10:45.855Z,71.57
2018-03-02T09:13:13.647Z,72.20
2018-03-02T09:15:41.318Z,76.47
2018-03-02T09:18:08.919Z,74.80
2018-03-02T09:20:36.626Z,74.00
2018-03-02T09:23:04.376Z,69.40
2018-03-02T09:25:31.891Z,69.82
2018-03-02T09:28:00.175Z,63.85
2018-03-02T09:30:27.733Z,67.32
2018-03-02T09:32:56.030Z,73.50
2018-03-02T09:35:23.880Z,68.28
2018-03-02T09:37:52.207Z,79.30
2018-03-02T09:40:19.714Z,72.70
2018-03-02T09:42:48.216Z,74.43
2018-03-02T09:45:15.758Z,70.37
2018-03-02T09:47:44.140Z,75.50
2018-03-02T09:50:11.774Z,68.47
2018-03-02T09:52:39.283Z,69.32
2018-03-02T09:55:06.786Z,66.22
2018-03-02T09:57:35.089Z,70.12
2018-03-02T10:00:03.518Z,69.43
2018-03-02T10:02:31.042Z,71.78
2018-03-02T10:04:58.600Z,64.03
2018-03-02T10:07:26.413Z,73.45
2018-03-02T10:09:54.036Z,68.70
2018-03-02T10:12:22.034Z,67.28
2018-03-02T10:14:49.564Z,63.70
2018-03-02T10:17:17.238Z,65.28
2018-03-02T10:19:46.839Z,66.70
2018-03-02T10:22:14.503Z,64.97
2018-03-02T10:24:42.025Z,67.43
2018-03-02T10:27:09.606Z,69.43
2018-03-02T10:29:37.390Z,72.45
2018-03-02T10:32:05.056Z,64.97
2018-03-02T10:34:32.786Z,68.35
2018-03-02T10:37:00.902Z,67.80
2018-03-02T10:39:28.428Z,66.35
2018-03-02T10:41:55.957Z,64.32
2018-03-02T10:44:23.486Z,65.07
2018-03-02T10:46:51.186Z,62.58
2018-03-02T10:49:18.779Z,71.80
2018-03-02T10:51:46.294Z,60.80
2018-03-02T10:54:14.648Z,57.70
2018-03-02T10:56:42.303Z,61.67
2018-03-02T10:59:11.294Z,64.97
2018-03-02T11:01:44.377Z,63.60
2018-03-02T11:04:18.515Z,66.95
2018-03-02T11:06:46.238Z,62.22
2018-03-02T11:09:13.796Z,69.82
2018-03-02T11:11:41.317Z,65.70
2018-03-02T11:14:08.888Z,59.28
2018-03-02T11:16:36.462Z,58.25
2018-03-02T11:19:04.014Z,60.88
2018-03-02T11:21:31.558Z,64.55
2018-03-02T11:23:59.081Z,62.40
2018-03-02T11:26:26.629Z,61.58
2018-03-02T11:28:54.142Z,59.42
2018-03-02T11:31:22.426Z,59.75
2018-03-02T11:33:49.950Z,55.93
2018-03-02T11:36:18.374Z,58.10
2018-03-02T11:38:45.921Z,61.10
2018-03-02T11:41:13.465Z,62.05
2018-03-02T11:43:41.068Z,58.47
2018-03-02T11:46:08.624Z,69.00
2018-03-02T11:48:37.646Z,58.40
2018-03-02T11:51:05.159Z,57.80
2018-03-02T11:53:33.035Z,60.37
2018-03-02T11:56:00.541Z,60.60
2018-03-02T11:58:28.280Z,65.85
2018-03-02T12:00:56.038Z,63.80
2018-03-02T12:03:23.566Z,58.53
2018-03-02T12:05:51.083Z,59.67
2018-03-02T12:08:18.588Z,62.05
2018-03-02T12:10:46.122Z,60.55
2018-03-02T12:13:14.510Z,63.90
2018-03-02T12:15:42.117Z,62.17
2018-03-02T12:18:09.833Z,63.63
2018-03-02T12:20:37.339Z,63.15
2018-03-02T12:23:04.861Z,61.85
2018-03-02T12:25:32.365Z,61.33
2018-03-02T12:27:59.979Z,62.20
2018-03-02T12:30:27.649Z,63.00
2018-03-02T12:32:55.165Z,64.75
2018-03-02T12:35:22.671Z,63.97
2018-03-02T12:37:50.183Z,61.47
2018-03-02T12:40:17.796Z,63.78
2018-03-02T12:42:45.311Z,60.72
2018-03-02T12:45:12.872Z,62.95
2018-03-02T12:47:40.534Z,62.30
2018-03-02T12:50:08.830Z,59.28
2018-03-02T12:52:36.323Z,60.42
2018-03-02T12:55:03.909Z,61.17
2018-03-02T12:57:31.377Z,61.92
2018-03-02T12:59:59.134Z,59.97
2018-03-02T13:02:26.643Z,63.22
2018-03-02T13:04:54.167Z,62.15
2018-03-02T13:07:21.690Z,60.83
2018-03-02T13:09:49.234Z,61.50
2018-03-02T13:12:16.877Z,63.87
2018-03-02T13:14:44.437Z,61.13
2018-03-02T13:17:12.930Z,56.17
2018-03-02T13:19:40.442Z,56.92
2018-03-02T13:25:09.121Z,61.55
2018-03-02T13:27:48.494Z,61.55
2018-03-02T13:30:15.985Z,58.63
2018-03-02T13:32:55.336Z,60.35
2018-03-02T13:35:22.954Z,60.38
2018-03-02T13:37:50.462Z,55.70
2018-03-02T13:40:29.801Z,58.60
2018-03-02T13:42:57.342Z,64.47
2018-03-02T13:45:24.842Z,60.83
2018-03-02T13:51:06.130Z,61.40
2018-03-02T13:53:33.703Z,62.70
2018-03-02T13:56:01.242Z,61.58
2018-03-02T13:58:28.843Z,61.90
2018-03-02T14:00:57.114Z,64.97
2018-03-02T14:03:37.120Z,60.00
2018-03-02T14:06:04.973Z,62.22
2018-03-02T14:08:32.515Z,61.28
2018-03-02T14:11:02.392Z,60.47
2018-03-02T14:13:29.885Z,62.38
2018-03-02T14:15:57.408Z,59.15
2018-03-02T14:18:24.903Z,66.18
2018-03-02T14:20:52.451Z,58.55
2018-03-02T14:23:19.991Z,60.78
2018-03-02T14:25:47.516Z,58.13
2018-03-02T14:28:15.032Z,65.00
2018-03-02T14:30:42.603Z,63.78
2018-03-02T14:33:10.195Z,63.42
2018-03-02T14:35:37.710Z,63.53
2018-03-02T14:38:06.128Z,61.72
2018-03-02T14:40:33.784Z,66.80
2018-03-02T14:43:01.306Z,67.18
2018-03-02T14:45:29.709Z,60.15
2018-03-02T14:47:57.278Z,62.53
2018-03-02T14:50:24.939Z,66.15
2018-03-02T14:52:52.623Z,64.62
2018-03-02T14:55:20.170Z,67.57
2018-03-02T14:57:47.732Z,63.00
2018-03-02T15:00:15.242Z,66.40
2018-03-02T15:02:42.980Z,61.50
2018-03-02T15:05:10.573Z,70.65
2018-03-02T15:07:38.101Z,64.03
2018-03-02T15:10:05.627Z,61.75
2018-03-02T15:12:33.139Z,63.15
2018-03-02T15:15:00.664Z,60.38
2018-03-02T15:17:28.162Z,61.75
2018-03-02T15:19:55.686Z,69.80
2018-03-02T15:22:23.236Z,62.95
2018-03-02T15:24:50.782Z,58.90
2018-03-02T15:27:18.333Z,61.22
2018-03-02T15:29:46.056Z,67.60
2018-03-02T15:32:14.344Z,62.28
2018-03-02T15:34:41.886Z,60.42
2018-03-02T15:37:10.062Z,67.75
2018-03-02T15:39:37.728Z,64.12
2018-03-02T15:42:05.374Z,65.10
2018-03-02T15:44:33.662Z,66.37
2018-03-02T15:47:01.208Z,65.22
2018-03-02T15:49:28.842Z,68.45
2018-03-02T15:51:56.419Z,63.30
2018-03-02T15:54:23.932Z,67.80
2018-03-02T15:56:51.473Z,65.22
2018-03-02T15:59:19.059Z,63.00
2018-03-02T16:01:46.619Z,64.62
2018-03-02T16:07:22.135Z,69.15
2018-03-02T16:09:49.677Z,70.32
2018-03-02T16:12:17.184Z,69.47
2018-03-02T16:14:44.735Z,69.40
2018-03-02T16:17:12.235Z,63.70
2018-03-02T16:19:39.766Z,68.60
2018-03-02T16:22:07.312Z,69.00
2018-03-02T16:24:35.739Z,71.78
2018-03-02T16:27:03.334Z,73.47
2018-03-02T16:29:30.863Z,68.03
2018-03-02T16:31:58.399Z,73.30
2018-03-02T16:34:25.910Z,72.62
2018-03-02T16:36:54.207Z,78.93
2018-03-02T16:39:21.757Z,97.28
2018-03-02T16:41:49.431Z,80.47
2018-03-02T16:44:17.011Z,76.45
2018-03-02T16:46:44.546Z,80.35
2018-03-02T16:49:12.055Z,90.20
2018-03-02T16:51:39.628Z,79.07
2018-03-02T16:54:07.219Z,73.18
2018-03-02T16:56:34.843Z,76.85
2018-03-02T16:59:02.348Z,77.78
2018-03-02T17:01:29.859Z,72.68
2018-03-02T17:03:57.403Z,81.97
2018-03-02T17:06:24.944Z,85.82
2018-03-02T17:08:52.475Z,81.50
2018-03-02T17:20:10.121Z,83.62
2018-03-02T17:22:37.682Z,85.87
2018-03-02T17:25:05.267Z,91.90
2018-03-02T17:27:32.802Z,92.88
2018-03-02T17:30:00.377Z,87.85
2018-03-02T17:32:27.905Z,82.68
2018-03-02T17:34:55.491Z,89.50
2018-03-02T17:37:22.994Z,82.93
2018-03-02T17:39:50.546Z,85.18
2018-03-02T17:42:18.021Z,86.20
2018-03-02T17:44:45.614Z,81.65
2018-03-02T17:47:13.256Z,86.53
2018-03-02T17:49:40.780Z,87.03
2018-03-02T17:52:08.291Z,80.10
2018-03-02T17:54:35.865Z,73.45
2018-03-02T17:57:03.408Z,74.62
2018-03-02T17:59:30.955Z,76.03
2018-03-02T18:01:58.514Z,74.15
2018-03-02T18:04:26.014Z,76.60
2018-03-02T18:06:54.822Z,81.03
2018-03-02T18:09:23.112Z,79.45
2018-03-02T18:11:50.678Z,80.80
2018-03-02T18:14:18.205Z,76.40
2018-03-02T18:16:46.498Z,74.15
2018-03-02T18:19:14.765Z,77.18
2018-03-02T18:21:42.282Z,73.97
2018-03-02T18:24:09.817Z,74.32
2018-03-02T18:26:37.373Z,72.22
2018-03-02T18:29:04.888Z,76.72
2018-03-02T18:31:32.408Z,79.22
2018-03-02T18:33:59.887Z,79.93
2018-03-02T18:36:27.423Z,79.60
2018-03-02T18:38:54.960Z,79.03
2018-03-02T18:41:22.488Z,84.37
2018-03-02T18:43:49.997Z,85.18
2018-03-02T18:46:17.512Z,82.28
2018-03-02T18:48:45.821Z,86.30
2018-03-02T18:51:13.361Z,83.72
2018-03-02T18:53:41.749Z,85.43
2018-03-02T18:56:09.393Z,88.32
2018-03-02T18:58:37.157Z,88.72
2018-03-02T19:01:09.019Z,89.70
2018-03-02T19:03:36.576Z,93.43
2018-03-02T19:06:04.894Z,92.78
2018-03-02T19:08:32.572Z,82.35
2018-03-02T19:11:00.672Z,87.00
2018-03-02T19:13:28.228Z,82.25
2018-03-02T19:15:55.859Z,86.70
2018-03-02T19:18:24.838Z,85.53
2018-03-02T19:20:52.514Z,84.10
2018-03-02T19:23:22.305Z,86.78
2018-03-02T19:25:50.136Z,86.97
2018-03-02T19:28:22.083Z,87.15
2018-03-02T19:30:52.418Z,83.93
2018-03-02T19:33:20.025Z,82.12
2018-03-02T19:35:47.830Z,84.70
2018-03-02T19:38:15.725Z,94.43
2018-03-02T19:40:43.251Z,90.93
2018-03-02T19:43:10.754Z,86.37
2018-03-02T19:45:38.378Z,90.07
2018-03-02T19:48:06.202Z,97.22
2018-03-02T19:50:35.186Z,92.20
2018-03-02T19:53:02.776Z,87.32
2018-03-02T19:55:30.713Z,91.18
2018-03-02T19:57:58.470Z,93.40
2018-03-02T20:00:27.185Z,90.25
2018-03-02T20:02:55.111Z,98.87
2018-03-02T20:05:22.676Z,91.20
2018-03-02T20:07:50.199Z,94.72
2018-03-02T20:10:18.494Z,94.25
2018-03-02T20:12:46.807Z,94.15
2018-03-02T20:15:14.431Z,97.05
2018-03-02T20:17:42.034Z,95.07
2018-03-02T20:20:09.956Z,96.40
2018-03-02T20:22:38.310Z,92.82
2018-03-02T20:25:06.155Z,99.32
2018-03-02T20:27:33.729Z,100.60
2018-03-02T20:30:01.288Z,102.30
2018-03-02T20:32:29.638Z,95.07
2018-03-02T20:34:57.187Z,94.55
2018-03-02T20:37:25.494Z,92.88
2018-03-02T20:39:53.221Z,94.55
2018-03-02T20:42:20.763Z,98.50
2018-03-02T20:44:48.374Z,92.82
2018-03-02T20:47:15.974Z,90.47
2018-03-02T20:49:43.478Z,102.75
2018-03-02T20:52:11.001Z,94.45
2018-03-02T20:54:38.535Z,95.53
2018-03-02T20:57:06.044Z,94.05
2018-03-02T20:59:33.592Z,95.43
2018-03-02T21:02:01.977Z,98.95
2018-03-02T21:04:29.676Z,100.60
2018-03-02T21:06:57.233Z,101.90
2018-03-02T21:09:24.760Z,105.00
2018-03-02T21:11:53.124Z,111.45
2018-03-02T21:14:20.618Z,106.75
2018-03-02T21:16:48.165Z,109.53
2018-03-02T21:19:15.699Z,110.43
2018-03-02T21:21:43.304Z,119.37
2018-03-02T21:24:10.817Z,116.30
2018-03-02T21:30:12.433Z,114.97
2018-03-02T21:32:39.966Z,117.18
2018-03-02T21:35:07.507Z,123.28
2018-03-02T21:37:35.079Z,122.25
2018-03-02T21:40:02.828Z,123.05
2018-03-02T21:42:30.342Z,125.80
2018-03-02T21:44:57.863Z,120.05
2018-03-02T21:47:25.537Z,117.45
2018-03-02T21:49:53.079Z,114.45
2018-03-02T21:52:21.561Z,119.62
2018-03-02T21:54:49.165Z,130.73
2018-03-02T21:57:16.672Z,111.43
2018-03-02T21:59:44.451Z,114.40
2018-03-02T22:15:00.380Z,128.25
2018-03-02T22:17:27.903Z,125.43
2018-03-02T22:19:55.414Z,126.93
2018-03-02T22:22:23.038Z,125.60
2018-03-02T22:24:50.691Z,134.27
2018-03-02T22:27:18.222Z,131.70
2018-03-02T22:29:45.740Z,137.27
2018-03-02T22:32:13.245Z,133.87
2018-03-02T22:34:40.765Z,130.07
2018-03-02T22:37:08.357Z,142.20
2018-03-02T22:39:35.928Z,133.73
2018-03-02T22:42:07.368Z,133.35
2018-03-02T22:44:34.961Z,137.07
2018-03-02T22:47:03.288Z,140.00
2018-03-02T22:49:30.855Z,125.53
2018-03-02T22:51:58.378Z,129.35
2018-03-02T22:54:26.713Z,135.85
2018-03-02T22:56:54.292Z,132.75
2018-03-02T22:59:21.842Z,127.07
2018-03-02T23:01:49.343Z,136.65
2018-03-02T23:04:17.769Z,123.30
2018-03-02T23:06:45.389Z,125.32
2018-03-02T23:09:13.073Z,134.80
2018-03-02T23:11:40.558Z,134.80
2018-03-02T23:14:08.425Z,135.60
2018-03-02T23:16:35.932Z,134.10
2018-03-02T23:19:03.444Z,123.50
2018-03-02T23:21:30.966Z,130.18
2018-03-02T23:23:58.537Z,129.50
2018-03-02T23:26:26.086Z,126.85
2018-03-02T23:28:53.595Z,131.63
2018-03-02T23:31:21.185Z,141.80
2018-03-02T23:33:48.761Z,140.55
2018-03-02T23:36:16.367Z,142.13
2018-03-02T23:38:43.871Z,141.65
2018-03-02T23:41:11.552Z,139.40
2018-03-02T23:43:39.191Z,143.62
2018-03-02T23:46:06.729Z,137.10
2018-03-02T23:48:34.234Z,143.37
2018-03-02T23:51:01.894Z,131.12
2018-03-02T23:53:29.400Z,141.35
2018-03-02T23:55:56.941Z,149.27
2018-03-02T23:58:24.469Z,144.70
